• Join FlightAware (Why Join?)
  • Login
  • US Flag 
05:09AM EDT


 

Airport Tracker/Info


-or-


 

Live Flight TrackerFlight Track Log ✈ ASQ4577 ✈ 19-Jun-2013 ✈ KCLE - KALB

Flight Track Log - Related Links

Times and Time Zones

All times are in EDT time to prevent confusion due to time zone crossing. See the ASQ4577 flight status page for this flight to view local times or setup timezone preferences in your user account.

Time Position Orientation Groundspeed Altitude Reporting Facility
EDT Latitude Longitude Course Direction KTS MPH feet Rate Location/Type
07:27PM 41.4172 -81.8375 37° Northeast 161 185 1,600  Level Cleveland Center
07:28PM 41.4467 -81.8186 26° Northeast 187 215 2,700 1,140 Climbing Cleveland Center
07:28PM 41.4825 -81.7889 32° Northeast 258 297 3,200 1,800 Climbing Cleveland Center
07:29PM 41.5456 -81.7511 24° Northeast 335 386 5,700 2,520 Climbing Cleveland Center
07:30PM 41.6579 -81.5922 37° Northeast  Level FlightAware Approximate
07:30PM 41.6064 -81.6911 36° Northeast 306 352 8,300  Level Cleveland Center
07:31PM 41.7446 -81.5055 37° Northeast  Level FlightAware Approximate
07:31PM 41.6675 -81.6228 40° Northeast 281 323 10,600  Level Cleveland Center
07:32PM 41.8313 -81.4187 37° Northeast  Level FlightAware Approximate
07:32PM 41.7308 -81.5458 42° Northeast 294 338 11,700  Level Cleveland Center
07:33PM 41.8067 -81.4578 41° Northeast 316 364 13,800 1,800 Climbing Cleveland Center
07:34PM 41.8511 -81.3469 62° Northeast 321 369 15,300 1,320 Climbing Cleveland Center
07:35PM 41.8728 -81.2106 78° East 341 392 16,500 1,080 Climbing Cleveland Center
07:36PM 41.9089 -81.0769 70° East 365 420 17,500 900 Climbing Cleveland Center
07:37PM 41.9469 -80.9433 69° East 376 433 18,300 900 Climbing Cleveland Center
07:38PM 41.9889 -80.8011 68° East 387 445 19,300 960 Climbing Cleveland Center
07:39PM 42.0119 -80.6503 78° East 402 463 20,300 960 Climbing Cleveland Center
07:40PM 42.0328 -80.4964 80° East 415 478 21,300 900 Climbing Cleveland Center
07:41PM 42.0514 -80.3511 80° East 429 494 22,100 900 Climbing Cleveland Center
07:42PM 42.0761 -80.1917 78° East 429 494 23,200 1,020 Climbing Cleveland Center
07:43PM 42.0961 -80.0319 80° East 429 494 24,200 960 Climbing Cleveland Center
07:44PM 42.1183 -79.8694 80° East 429 494 25,200 900 Climbing Cleveland Center
07:45PM 42.1400 -79.7067 80° East 429 494 26,100 900 Climbing Cleveland Center
07:46PM 42.1617 -79.5494 79° East 429 494 27,100 960 Climbing Cleveland Center
07:47PM 42.1811 -79.3894 81° East 429 494 28,100 960 Climbing Cleveland Center
07:48PM 42.2003 -79.2378 80° East 419 482 29,100 960 Climbing Cleveland Center
07:49PM 42.2192 -79.0833 81° East 419 482 30,100 900 Climbing Cleveland Center
07:50PM 42.2378 -78.9256 81° East 419 482 31,000 420 Climbing Cleveland Center
07:51PM 42.2622 -78.7456 80° East 424 488 31,000  Level Cleveland Center
07:52PM 42.2844 -78.5736 80° East 446 513 31,000  Level Cleveland Center
07:53PM 42.3019 -78.3989 82° East 463 533 31,000  Level Cleveland Center
07:54PM 42.3256 -78.2211 80° East 468 539 31,000  Level Cleveland Center
07:55PM 42.3447 -78.0436 82° East 468 539 31,000 -180 Level Cleveland Center
07:56PM 42.3636 -77.8686 82° East 468 539 30,700 -780 Descending Cleveland Center
07:57PM 42.3844 -77.6933 81° East 468 539 29,500 -900 Descending Cleveland Center
07:58PM 42.4028 -77.5181 82° East 468 539 29,000 -300 Descending Cleveland Center
07:59PM 42.4231 -77.3428 81° East 468 539 29,000  Level Cleveland Center
08:02PM 42.4661 -76.9244 82° East 483 556 29,000  Level Boston Center
08:03PM 42.4853 -76.7483 82° East 483 556 29,000  Level Boston Center
08:04PM 42.5025 -76.5664 83° East 483 556 29,000 -180 Level Boston Center
08:05PM 42.5217 -76.3844 82° East 483 556 28,700 -600 Descending Boston Center
08:06PM 42.5375 -76.2192 83° East 483 556 27,800 -900 Descending Boston Center
08:07PM 42.5561 -76.0369 82° East 483 556 26,900 -900 Descending Boston Center
08:08PM 42.5689 -75.8883 83° East 483 556 26,100 -960 Descending Boston Center
08:09PM 42.5900 -75.6694 82° East 483 556 25,000 -1,020 Descending Boston Center
08:10PM 42.6075 -75.4925 82° East 478 550 24,100 -1,080 Descending Boston Center
08:11PM 42.6225 -75.3097 84° East 478 550 22,900 -2,160 Descending Boston Center
08:12PM 42.6372 -75.1411 83° East 473 544 19,800 -2,820 Descending Boston Center
08:13PM 42.6514 -74.9753 83° East 459 528 17,300 -2,640 Descending Boston Center
08:14PM 42.6675 -74.8119 82° East 412 474 14,700 -2,640 Descending Boston Center
08:15PM 42.6811 -74.6517 83° East 416 479 12,100 -1,800 Descending Boston Center
08:16PM 42.6817 -74.5047 90° East 400 460 11,000 -1,020 Descending Boston Center
08:17PM 42.6778 -74.3775 92° East 354 407 10,100 -1,260 Descending Boston Center
08:18PM 42.6733 -74.2728 93° East 311 358 8,500 -1,680 Descending Boston Center
08:19PM 42.6689 -74.1569 93° East 287 330 6,800 -1,560 Descending Boston Center
08:20PM 42.6681 -74.0694 91° East 275 316 5,400 -1,440 Descending Boston Center
08:21PM 42.6694 -73.9706 89° East 261 300 4,000 -1,260 Descending Boston Center
08:22PM 42.6747 -73.8889 85° East 241 277 2,900 -900 Descending Boston Center
08:23PM 42.6839 -73.8042 82° East 217 250 2,300 -600 Descending Boston Center